Time;durP1;ratioP1;P1;durP2;ratioP2;P2;SDS_P1;SDS_P2;PMS_P1;PMS_P2;Temp;Humidity;BMP_temperature;BMP_pressure;BME280_temperature;BME280_humidity;BME280_pressure;Samples;Min_cycle;Max_cycle;Signal;HPM_P1;HPM_P2
2022/01/06 00:05:51;;;;;;;0.20;0.00;;;6.90;99.90;;;;;;20472588;29;20240;-68
2022/01/06 00:16:42;;;;;;;0.20;0.10;;;6.70;99.90;;;;;;20491603;29;20237;-69
2022/01/06 00:27:27;;;;;;;0.20;0.10;;;6.10;99.90;;;;;;20491408;29;20279;-68
2022/01/06 00:38:12;;;;;;;0.20;0.00;;;6.00;99.90;;;;;;20488765;29;20291;-68
2022/01/06 00:48:58;;;;;;;0.20;0.10;;;5.80;99.90;;;;;;20491494;29;20208;-68
2022/01/06 00:59:42;;;;;;;0.20;0.10;;;5.70;99.90;;;;;;20459258;29;21009;-68
2022/01/06 01:10:28;;;;;;;0.20;0.00;;;5.80;99.90;;;;;;20450560;28;20243;-67
2022/01/06 11:48:48;;;;;;;0.20;0.10;;;13.40;99.90;;;;;;22742985;23;20233;-81
2022/01/06 11:59:34;;;;;;;0.20;0.10;;;13.60;99.90;;;;;;20409406;23;20245;-71
2022/01/06 12:10:21;;;;;;;0.20;0.20;;;14.10;99.90;;;;;;20405461;29;20205;-71
2022/01/06 12:21:06;;;;;;;0.20;0.00;;;13.80;99.90;;;;;;20405140;29;20250;-70
2022/01/06 12:32:02;;;;;;;0.97;0.43;;;14.60;99.90;;;;;;20403410;29;20201;-71
2022/01/06 12:42:47;;;;;;;0.20;0.10;;;14.10;99.90;;;;;;20402330;29;20225;-70
2022/01/06 12:53:34;;;;;;;0.20;0.10;;;14.10;99.90;;;;;;20372129;29;20250;-70
2022/01/06 13:04:25;;;;;;;0.20;0.10;;;14.60;99.90;;;;;;20279412;29;20272;-68
2022/01/06 13:15:11;;;;;;;0.20;0.00;;;15.30;99.90;;;;;;20335402;29;20615;-68
2022/01/06 13:26:06;;;;;;;0.20;0.10;;;15.60;99.90;;;;;;20341680;29;20248;-76
2022/01/06 13:37:03;;;;;;;0.20;0.00;;;16.30;99.90;;;;;;20344550;29;20213;-77
2022/01/06 13:47:54;;;;;;;0.20;0.10;;;15.40;99.90;;;;;;20339225;29;20206;-68
2022/01/06 13:58:42;;;;;;;0.20;0.10;;;15.70;99.90;;;;;;20336320;29;20253;-68
2022/01/06 14:09:26;;;;;;;0.20;0.10;;;16.80;99.90;;;;;;20320599;29;20578;-67
2022/01/06 14:20:13;;;;;;;0.20;0.10;;;17.30;99.90;;;;;;20326120;29;20237;-67
2022/01/06 14:30:58;;;;;;;0.20;0.00;;;17.60;99.90;;;;;;20336249;29;20209;-66
2022/01/06 14:41:44;;;;;;;0.20;0.00;;;17.70;99.90;;;;;;20317294;29;20288;-77
2022/01/06 14:52:28;;;;;;;0.20;0.00;;;17.90;99.90;;;;;;20316632;29;20559;-79
2022/01/06 15:03:14;;;;;;;0.20;0.00;;;17.60;99.90;;;;;;20254425;29;20255;-67
2022/01/06 15:13:59;;;;;;;0.20;0.00;;;17.60;99.90;;;;;;20251376;29;20547;-66
2022/01/06 15:24:45;;;;;;;0.20;0.10;;;17.80;99.90;;;;;;20252229;29;20230;-65
2022/01/06 15:35:29;;;;;;;0.20;0.10;;;16.40;99.90;;;;;;20333143;29;20225;-66
2022/01/06 15:45:35;;;;;;;0.20;0.10;;;16.80;99.90;;;;;;20294382;29;20230;-65
2022/01/06 15:55:41;;;;;;;0.20;0.10;;;15.40;99.90;;;;;;20293614;29;20286;-67
2022/01/06 16:05:47;;;;;;;0.20;0.10;;;14.20;99.90;;;;;;20286029;29;20266;-66
2022/01/06 16:15:51;;;;;;;0.20;0.10;;;12.10;99.90;;;;;;20309550;29;20214;-66
2022/01/06 16:25:58;;;;;;;0.20;0.10;;;10.70;99.90;;;;;;20254692;29;20238;-66
2022/01/06 16:36:02;;;;;;;0.20;0.10;;;10.30;99.90;;;;;;20307245;29;20199;-64
2022/01/06 16:46:07;;;;;;;0.20;0.10;;;9.40;99.90;;;;;;20263805;29;20228;-65
2022/01/06 16:56:12;;;;;;;0.20;0.00;;;9.20;99.90;;;;;;20326607;29;20822;-66
2022/01/06 17:06:17;;;;;;;0.20;0.00;;;8.80;99.90;;;;;;20329934;29;20267;-65
2022/01/06 17:16:22;;;;;;;0.20;0.00;;;8.80;99.90;;;;;;20313436;29;20227;-65
2022/01/06 17:26:28;;;;;;;1.40;1.40;;;8.50;99.90;;;;;;20329570;29;20337;-66
2022/01/06 17:36:32;;;;;;;0.20;0.10;;;8.60;99.90;;;;;;20330818;29;20195;-66
2022/01/06 17:46:38;;;;;;;0.20;0.10;;;8.40;99.90;;;;;;20315195;29;20296;-66
2022/01/06 17:56:42;;;;;;;0.20;0.00;;;8.40;99.90;;;;;;20302913;29;20252;-66
2022/01/06 18:06:52;;;;;;;0.20;0.10;;;8.40;99.90;;;;;;20309131;29;20317;-68
2022/01/06 18:16:56;;;;;;;0.20;0.10;;;8.00;99.90;;;;;;20335519;29;20232;-66
2022/01/06 18:27:01;;;;;;;6.90;1.10;;;7.90;99.90;;;;;;20317460;29;20715;-67
2022/01/06 18:37:07;;;;;;;0.20;0.10;;;7.80;99.90;;;;;;20329725;29;20266;-66
2022/01/06 18:47:12;;;;;;;0.20;0.10;;;7.80;99.90;;;;;;20331251;29;20244;-66
2022/01/06 18:57:16;;;;;;;0.20;0.10;;;7.70;99.90;;;;;;20314289;29;20241;-78
2022/01/06 19:07:22;;;;;;;0.20;0.10;;;7.50;99.90;;;;;;20313756;29;20730;-76
2022/01/06 19:17:26;;;;;;;0.20;0.10;;;7.30;99.90;;;;;;20334637;29;20202;-78
2022/01/06 19:27:32;;;;;;;0.20;0.10;;;7.30;99.90;;;;;;20319867;29;20256;-78
2022/01/06 19:37:36;;;;;;;0.20;0.10;;;7.20;99.90;;;;;;20336487;29;20574;-80
2022/01/06 19:47:43;;;;;;;0.20;0.00;;;7.10;99.90;;;;;;20334440;29;20255;-78
2022/01/06 19:57:48;;;;;;;0.20;0.10;;;6.90;99.90;;;;;;20333028;29;20245;-78
2022/01/06 20:07:53;;;;;;;0.20;0.17;;;6.80;99.90;;;;;;20332860;29;20226;-78
2022/01/06 20:17:57;;;;;;;0.20;0.10;;;6.90;99.90;;;;;;20328266;29;20330;-78
2022/01/06 20:28:05;;;;;;;0.20;0.10;;;6.90;99.90;;;;;;20319092;29;20637;-67
2022/01/06 20:38:09;;;;;;;0.20;0.10;;;7.00;99.90;;;;;;20259727;29;20221;-67
2022/01/06 20:58:36;;;;;;;0.20;0.10;;;6.70;99.90;;;;;;20274339;29;20266;-66
2022/01/06 21:08:41;;;;;;;0.20;0.10;;;6.80;99.90;;;;;;20256005;29;20206;-68
2022/01/06 21:18:45;;;;;;;0.20;0.10;;;6.70;99.90;;;;;;20257314;29;20287;-66
2022/01/06 21:28:50;;;;;;;0.20;0.10;;;6.70;99.90;;;;;;20263518;29;20209;-67
2022/01/06 21:38:54;;;;;;;1.90;1.80;;;6.50;99.90;;;;;;20271647;29;20261;-66
2022/01/06 21:49:00;;;;;;;0.87;0.87;;;6.40;99.90;;;;;;20253365;29;20559;-66
2022/01/06 21:59:04;;;;;;;0.20;0.10;;;6.30;99.90;;;;;;20278554;29;20775;-77
2022/01/06 22:09:09;;;;;;;0.20;0.10;;;6.30;99.90;;;;;;20265919;29;20206;-77
2022/01/06 22:19:13;;;;;;;0.20;0.10;;;6.30;99.90;;;;;;20295568;29;20233;-75
2022/01/06 22:29:19;;;;;;;0.20;0.10;;;6.30;99.90;;;;;;20259400;29;20275;-77
2022/01/06 22:39:24;;;;;;;0.20;0.10;;;6.20;99.90;;;;;;20321793;29;20663;-76
2022/01/06 22:49:30;;;;;;;0.20;0.10;;;6.20;99.90;;;;;;20300015;29;20255;-78
2022/01/06 22:59:34;;;;;;;0.20;0.10;;;6.30;99.90;;;;;;20281806;29;20222;-66
2022/01/06 23:09:40;;;;;;;0.47;0.47;;;6.30;99.90;;;;;;20343914;29;20202;-67
2022/01/06 23:19:45;;;;;;;0.20;0.00;;;6.20;99.90;;;;;;20325575;29;20238;-67
2022/01/06 23:29:50;;;;;;;0.20;0.10;;;6.30;99.90;;;;;;20253564;29;20289;-66
2022/01/06 23:39:54;;;;;;;0.20;0.00;;;6.30;99.90;;;;;;20245934;29;20223;-66
2022/01/06 23:50:09;;;;;;;0.30;0.30;;;6.20;99.90;;;;;;20245390;29;20657;-69
